Time;durP1;ratioP1;P1;durP2;ratioP2;P2;SDS_P1;SDS_P2;PMS_P1;PMS_P2;Temp;Humidity;BMP_temperature;BMP_pressure;BME280_temperature;BME280_humidity;BME280_pressure;Samples;Min_cycle;Max_cycle;Signal;HPM_P1;HPM_P2
2022/07/03 00:01:39;;;;;;;11.25;7.00;;;;;;;22.22;73.40;100545.31;4955162;29;20047;-71
2022/07/03 00:04:08;;;;;;;9.65;6.97;;;;;;;22.16;73.50;100552.22;4955284;29;20187;-70
2022/07/03 00:06:36;;;;;;;9.95;6.95;;;;;;;22.22;72.89;100545.31;4954559;29;20045;-71
2022/07/03 00:09:06;;;;;;;9.88;6.47;;;;;;;22.17;73.21;100543.06;4955066;29;20051;-70
2022/07/03 00:11:34;;;;;;;8.30;6.75;;;;;;;22.20;72.45;100539.19;4955086;29;20043;-71
2022/07/03 00:14:03;;;;;;;8.65;6.85;;;;;;;22.31;70.67;100532.63;4954966;29;20055;-70
2022/07/03 00:16:31;;;;;;;9.32;6.78;;;;;;;22.19;71.48;100532.88;4954744;29;20449;-71
2022/07/03 00:19:00;;;;;;;9.15;6.75;;;;;;;22.17;71.89;100534.91;4954897;29;20051;-71
2022/07/03 00:21:32;;;;;;;10.95;7.10;;;;;;;22.34;70.41;100537.72;4937672;29;20055;-82
2022/07/03 00:24:04;;;;;;;8.90;6.65;;;;;;;22.42;69.83;100529.63;4955138;29;20043;-69
2022/07/03 00:26:37;;;;;;;9.25;6.60;;;;;;;22.47;70.23;100533.53;4954753;29;20068;-71
2022/07/03 00:29:09;;;;;;;9.57;6.53;;;;;;;22.43;70.33;100532.16;4954921;29;20056;-71
2022/07/03 00:31:37;;;;;;;10.75;7.28;;;;;;;22.30;70.95;100528.19;4954533;29;20039;-69
2022/07/03 00:34:09;;;;;;;8.23;6.78;;;;;;;22.26;71.21;100533.94;4954862;29;20489;-69
2022/07/03 00:36:38;;;;;;;8.75;6.80;;;;;;;22.28;71.55;100528.34;4954562;29;20470;-71
2022/07/03 00:39:06;;;;;;;9.38;7.20;;;;;;;22.27;71.15;100526.63;4954966;29;20043;-70
2022/07/03 00:41:36;;;;;;;8.43;7.35;;;;;;;22.43;69.00;100525.88;4954641;29;20485;-69
2022/07/03 00:44:05;;;;;;;8.48;6.78;;;;;;;22.49;67.91;100525.25;4954830;29;20098;-72
2022/07/03 00:46:38;;;;;;;8.05;6.63;;;;;;;22.45;68.34;100526.56;4937462;29;20097;-71
2022/07/03 00:49:11;;;;;;;8.82;6.93;;;;;;;22.39;68.96;100522.66;4954741;29;20047;-70
2022/07/03 00:51:41;;;;;;;9.93;6.85;;;;;;;22.24;70.64;100526.97;4954753;29;20103;-70
2022/07/03 00:54:11;;;;;;;7.68;6.57;;;;;;;22.20;71.10;100518.31;4954750;29;20098;-69
2022/07/03 00:56:47;;;;;;;9.35;6.60;;;;;;;22.05;72.07;100522.56;4954552;29;20079;-70
2022/07/03 00:59:15;;;;;;;8.43;6.90;;;;;;;22.19;71.45;100524.72;4954912;29;20046;-70
2022/07/03 01:01:45;;;;;;;8.80;6.82;;;;;;;22.18;70.94;100525.72;4954555;29;20122;-71
2022/07/03 01:04:23;;;;;;;10.52;6.90;;;;;;;21.95;72.25;100533.53;4954730;29;20126;-71
2022/07/03 01:07:01;;;;;;;14.13;7.18;;;;;;;21.77;72.59;100531.88;4954549;29;20106;-70
2022/07/03 01:09:41;;;;;;;10.02;7.00;;;;;;;21.79;72.01;100529.84;4954646;29;20516;-71
2022/07/03 01:12:20;;;;;;;9.73;7.40;;;;;;;21.66;72.63;100522.13;4937473;29;20047;-70
2022/07/03 01:15:00;;;;;;;9.98;7.57;;;;;;;21.73;72.58;100519.63;4954223;29;20047;-70
2022/07/03 01:17:35;;;;;;;8.60;6.95;;;;;;;21.73;71.88;100514.22;4954531;28;20099;-69
2022/07/03 01:20:06;;;;;;;9.45;7.13;;;;;;;21.74;71.64;100513.19;4957860;29;20047;-69
2022/07/03 01:22:36;;;;;;;10.52;7.68;;;;;;;21.65;72.24;100510.41;4957972;29;20448;-70
2022/07/03 01:25:17;;;;;;;12.50;7.38;;;;;;;21.59;73.32;100516.44;4958262;29;20515;-70
2022/07/03 01:28:08;;;;;;;10.50;7.20;;;;;;;21.68;72.23;100510.09;4940282;29;20050;-70
2022/07/03 01:30:39;;;;;;;11.90;7.90;;;;;;;21.65;72.49;100513.13;4957713;29;20047;-72
2022/07/03 01:33:12;;;;;;;10.35;7.43;;;;;;;21.62;73.47;100499.88;4958027;29;20040;-72
2022/07/03 01:35:42;;;;;;;10.93;7.77;;;;;;;21.63;72.72;100495.28;4940468;29;20075;-71
2022/07/03 01:38:12;;;;;;;9.88;7.32;;;;;;;21.73;71.91;100498.75;4957674;29;20071;-71
2022/07/03 01:40:42;;;;;;;11.00;8.43;;;;;;;21.64;71.75;100497.00;4957264;29;20050;-71
2022/07/03 01:43:13;;;;;;;11.02;8.18;;;;;;;21.48;73.30;100497.72;4957844;29;20051;-71
2022/07/03 01:45:44;;;;;;;9.65;8.00;;;;;;;21.40;74.31;100495.75;4957561;29;20073;-71
2022/07/03 01:48:13;;;;;;;10.70;8.02;;;;;;;21.30;75.49;100499.56;4957593;29;20043;-70
2022/07/03 01:50:43;;;;;;;10.18;7.85;;;;;;;21.24;75.92;100500.19;4957257;29;20081;-70
2022/07/03 01:53:12;;;;;;;10.40;7.53;;;;;;;21.14;75.92;100492.13;4957598;29;20122;-69
2022/07/03 01:55:42;;;;;;;11.45;7.90;;;;;;;21.13;76.28;100499.41;4939952;29;20130;-70
2022/07/03 01:58:12;;;;;;;13.13;8.23;;;;;;;21.11;76.05;100495.97;4957415;29;20118;-69
2022/07/03 02:00:51;;;;;;;11.48;7.97;;;;;;;21.37;74.46;100500.66;4957158;29;20043;-70
2022/07/03 02:03:27;;;;;;;11.32;7.70;;;;;;;21.35;74.60;100492.69;4957076;29;20079;-70
2022/07/03 02:06:02;;;;;;;12.73;8.68;;;;;;;21.24;75.45;100502.91;4940039;29;20059;-70
2022/07/03 02:08:43;;;;;;;13.10;8.05;;;;;;;21.17;76.00;100505.38;4957418;29;20049;-70
2022/07/03 02:11:35;;;;;;;11.85;8.10;;;;;;;21.10;76.38;100499.69;4957072;29;20164;-71
2022/07/03 02:14:12;;;;;;;9.88;8.05;;;;;;;21.05;77.86;100484.91;4957356;29;20058;-71
2022/07/03 02:16:52;;;;;;;11.38;8.02;;;;;;;21.01;78.11;100488.91;4957111;29;20046;-70
2022/07/03 02:19:28;;;;;;;11.73;7.85;;;;;;;20.94;79.73;100483.28;4957167;29;20106;-70
2022/07/03 02:21:57;;;;;;;11.27;7.85;;;;;;;20.91;79.94;100491.69;4956714;29;20416;-71
2022/07/03 02:24:29;;;;;;;11.52;8.18;;;;;;;20.91;79.84;100491.69;4957140;29;20477;-70
2022/07/03 02:27:04;;;;;;;12.75;7.93;;;;;;;20.90;79.47;100492.69;4956476;29;20094;-71
2022/07/03 02:29:37;;;;;;;10.45;7.85;;;;;;;21.11;77.89;100493.25;4956543;28;20052;-71
2022/07/03 02:32:11;;;;;;;10.65;8.27;;;;;;;21.00;78.77;100498.06;4957127;29;20043;-71
2022/07/03 02:34:45;;;;;;;10.13;7.97;;;;;;;21.03;79.40;100493.16;4956599;29;20051;-72
2022/07/03 02:37:18;;;;;;;10.60;7.70;;;;;;;21.11;78.41;100490.53;4956711;29;20044;-71
2022/07/03 02:39:46;;;;;;;;;;;;;;;21.03;79.14;100487.75;4956984;29;20051;-71
2022/07/03 02:42:26;;;;;;;13.05;7.93;;;;;;;21.03;78.83;100492.31;4956651;29;20021;-71
2022/07/03 02:45:00;;;;;;;12.98;8.30;;;;;;;20.78;81.29;100502.91;4956366;29;20071;-71
2022/07/03 02:47:36;;;;;;;11.00;8.65;;;;;;;20.65;83.91;100494.25;4956860;29;20109;-70
2022/07/03 02:50:05;;;;;;;12.90;8.15;;;;;;;20.86;81.05;100480.47;4956813;29;20448;-74
2022/07/03 02:52:44;;;;;;;10.25;8.50;;;;;;;20.97;80.32;100491.09;4956172;29;20043;-72
2022/07/03 02:55:40;;;;;;;10.85;8.32;;;;;;;20.82;81.38;100496.16;4956279;29;20534;-72
2022/07/03 02:58:32;;;;;;;10.45;8.38;;;;;;;20.91;80.93;100494.41;4956769;29;20047;-72
2022/07/03 03:01:08;;;;;;;11.85;8.55;;;;;;;20.89;81.42;100499.13;4956106;29;20051;-72
2022/07/03 03:03:44;;;;;;;11.40;8.75;;;;;;;20.95;81.26;100494.97;4956234;29;20078;-72
2022/07/03 03:06:15;;;;;;;10.88;8.70;;;;;;;20.71;82.50;100503.66;4956223;29;20075;-69
2022/07/03 03:08:48;;;;;;;12.30;8.57;;;;;;;20.65;83.87;100504.25;4955812;29;20043;-70
2022/07/03 03:11:25;;;;;;;13.40;9.25;;;;;;;20.61;85.17;100508.28;4956200;29;20149;-69
2022/07/03 03:13:58;;;;;;;11.02;8.57;;;;;;;20.67;85.51;100508.53;4955779;29;20043;-69
2022/07/03 03:16:28;;;;;;;10.18;8.07;;;;;;;21.06;80.81;100502.88;4956243;29;20075;-70
2022/07/03 03:18:56;;;;;;;11.65;7.60;;;;;;;21.05;80.86;100512.03;4955964;29;20043;-70
2022/07/03 03:21:29;;;;;;;10.68;8.52;;;;;;;21.07;81.04;100504.59;4956019;29;20071;-70
2022/07/03 03:23:58;;;;;;;12.48;8.88;;;;;;;21.00;82.14;100511.63;4955596;29;20047;-69
2022/07/03 03:26:30;;;;;;;10.93;8.00;;;;;;;21.11;80.97;100514.94;4955725;29;20063;-69
2022/07/03 03:29:00;;;;;;;9.95;7.90;;;;;;;21.27;80.20;100517.03;4955814;29;20067;-70
2022/07/03 03:31:29;;;;;;;11.40;8.38;;;;;;;21.24;80.08;100521.88;4955848;29;20102;-70
2022/07/03 03:34:00;;;;;;;13.88;8.85;;;;;;;21.31;79.08;100520.25;4955562;29;20044;-70
2022/07/03 03:36:29;;;;;;;10.88;7.95;;;;;;;21.40;78.64;100519.34;4955902;29;20047;-70
2022/07/03 03:38:58;;;;;;;12.70;7.97;;;;;;;21.64;77.15;100514.13;4955520;29;20086;-73
2022/07/03 03:41:26;;;;;;;9.68;8.07;;;;;;;22.26;72.99;100505.91;4955021;28;20047;-71
2022/07/03 03:43:55;;;;;;;11.73;8.13;;;;;;;22.60;70.86;100496.91;4955447;29;20128;-70
2022/07/03 03:46:23;;;;;;;11.55;8.38;;;;;;;23.47;66.29;100493.72;4955502;29;20047;-70
2022/07/03 03:48:52;;;;;;;10.93;7.90;;;;;;;24.13;62.29;100495.41;4955187;29;20047;-69
2022/07/03 03:51:21;;;;;;;9.90;8.10;;;;;;;24.18;61.43;100501.16;4955468;29;20065;-69
2022/07/03 03:53:49;;;;;;;9.80;8.15;;;;;;;24.10;60.60;100494.88;4955175;29;20053;-71
2022/07/03 03:56:19;;;;;;;10.73;6.90;;;;;;;24.86;58.36;100493.44;4955380;29;20075;-71
2022/07/03 03:58:48;;;;;;;11.07;7.15;;;;;;;25.45;55.58;100488.28;4954906;29;20086;-71
2022/07/03 04:01:16;;;;;;;9.35;6.88;;;;;;;25.36;55.47;100484.75;4955446;29;20070;-71
2022/07/03 04:03:44;;;;;;;12.55;7.05;;;;;;;25.82;53.67;100490.22;4954908;29;20077;-71
2022/07/03 04:06:13;;;;;;;10.55;7.05;;;;;;;25.88;52.94;100486.75;4955028;29;20121;-71
2022/07/03 04:08:42;;;;;;;11.55;6.78;;;;;;;26.57;50.81;100484.63;4955219;29;20129;-79
2022/07/03 04:11:10;;;;;;;8.07;6.55;;;;;;;26.87;49.81;100479.09;4954977;29;20061;-71
2022/07/03 04:13:38;;;;;;;8.73;6.70;;;;;;;26.87;50.48;100487.31;4954940;29;20448;-70
2022/07/03 04:16:06;;;;;;;9.93;7.30;;;;;;;27.00;49.83;100492.91;4954739;29;20060;-70
2022/07/03 04:18:35;;;;;;;8.38;6.85;;;;;;;26.48;50.23;100504.91;4954700;29;20489;-71
2022/07/03 04:21:04;;;;;;;9.50;6.97;;;;;;;27.00;49.81;100503.88;4954788;29;20484;-71
2022/07/03 04:23:33;;;;;;;8.63;6.50;;;;;;;26.90;49.13;100506.06;4955399;29;20408;-71
2022/07/03 04:26:05;;;;;;;7.70;6.85;;;;;;;27.05;49.31;100509.66;4954920;29;20051;-71
2022/07/03 04:28:33;;;;;;;10.25;6.55;;;;;;;27.57;47.92;100511.25;4955038;29;20453;-71
2022/07/03 04:31:01;;;;;;;10.10;6.95;;;;;;;28.04;46.82;100512.50;4955022;29;20043;-71
2022/07/03 04:33:30;;;;;;;7.88;6.53;;;;;;;28.39;46.01;100511.53;4954775;29;20393;-71
2022/07/03 04:35:58;;;;;;;10.52;6.90;;;;;;;27.97;46.49;100506.13;4954775;29;20102;-71
2022/07/03 04:38:26;;;;;;;9.18;6.75;;;;;;;28.26;45.79;100497.69;4937747;29;20047;-70
2022/07/03 04:40:56;;;;;;;8.90;6.63;;;;;;;28.42;45.59;100502.88;4954758;29;20424;-70
2022/07/03 04:43:24;;;;;;;10.00;6.70;;;;;;;28.52;44.82;100489.63;4954734;29;20050;-70
2022/07/03 04:45:52;;;;;;;10.48;6.78;;;;;;;29.04;43.94;100488.16;4954377;29;20085;-69
2022/07/03 04:48:20;;;;;;;8.40;6.40;;;;;;;29.45;42.87;100487.22;4954935;29;20039;-71
2022/07/03 04:50:48;;;;;;;9.75;6.68;;;;;;;29.35;42.60;100489.53;4954584;29;20050;-71
2022/07/03 04:53:16;;;;;;;6.97;6.22;;;;;;;29.32;42.68;100499.00;4957287;28;20503;-69
2022/07/03 04:55:45;;;;;;;12.68;6.50;;;;;;;29.13;43.33;100496.22;4958204;29;20131;-75
2022/07/03 04:58:14;;;;;;;8.18;5.95;;;;;;;30.47;39.82;100495.00;4958231;29;20130;-71
2022/07/03 05:00:44;;;;;;;7.18;5.97;;;;;;;30.62;39.74;100486.47;4958378;29;20047;-68
2022/07/03 05:03:12;;;;;;;8.15;6.40;;;;;;;29.85;41.12;100487.25;4958561;29;20047;-70
2022/07/03 05:05:40;;;;;;;9.45;6.13;;;;;;;31.27;37.79;100476.25;4958183;29;20083;-72
2022/07/03 05:08:09;;;;;;;9.93;6.43;;;;;;;31.46;37.50;100476.31;4957964;29;20122;-72
2022/07/03 05:10:37;;;;;;;8.80;5.72;;;;;;;30.91;38.77;100479.59;4958131;29;20047;-72
2022/07/03 05:13:05;;;;;;;9.07;6.28;;;;;;;30.88;38.53;100485.53;4958060;29;20049;-72
2022/07/03 05:15:34;;;;;;;7.63;6.00;;;;;;;31.25;37.64;100483.03;4958357;29;20043;-72
2022/07/03 05:18:02;;;;;;;7.30;5.75;;;;;;;30.94;38.37;100489.31;4957735;29;20047;-71
2022/07/03 05:20:31;;;;;;;9.82;6.55;;;;;;;31.74;36.96;100475.88;4958191;29;20055;-72
2022/07/03 05:23:01;;;;;;;7.70;5.97;;;;;;;31.45;37.58;100474.63;4940362;29;20053;-71
2022/07/03 05:25:31;;;;;;;7.45;6.00;;;;;;;32.16;36.57;100475.09;4958162;29;20079;-71
2022/07/03 05:28:01;;;;;;;7.75;6.07;;;;;;;32.44;35.61;100471.84;4957741;29;20059;-72
2022/07/03 05:30:29;;;;;;;8.82;5.88;;;;;;;32.34;35.85;100474.28;4958055;29;20050;-71
2022/07/03 05:32:58;;;;;;;10.20;6.32;;;;;;;31.94;36.56;100473.81;4957463;29;20047;-72
2022/07/03 05:35:27;;;;;;;8.70;6.30;;;;;;;32.22;35.91;100476.06;4940364;29;20519;-72
2022/07/03 05:37:55;;;;;;;9.50;6.20;;;;;;;32.73;35.13;100464.69;4957262;29;20049;-71
2022/07/03 05:40:22;;;;;;;8.75;6.32;;;;;;;32.33;36.27;100469.84;4957790;29;20051;-71
2022/07/03 05:42:50;;;;;;;7.22;5.90;;;;;;;32.64;35.41;100468.84;4957566;29;20420;-71
2022/07/03 05:45:18;;;;;;;7.25;5.88;;;;;;;32.77;34.75;100470.56;4957734;29;20042;-71
2022/07/03 05:47:46;;;;;;;8.90;6.28;;;;;;;32.95;34.97;100466.97;4957422;29;20069;-71
2022/07/03 05:50:15;;;;;;;7.85;6.10;;;;;;;33.04;34.68;100468.31;4940215;29;20058;-71
2022/07/03 05:52:44;;;;;;;8.70;6.55;;;;;;;32.15;36.28;100475.31;4957719;29;20049;-71
2022/07/03 05:55:12;;;;;;;6.53;5.80;;;;;;;32.99;34.95;100466.25;4957089;29;20043;-71
2022/07/03 05:57:40;;;;;;;7.30;6.25;;;;;;;32.96;34.72;100477.78;4957489;29;20047;-73
2022/07/03 06:00:09;;;;;;;7.35;5.55;;;;;;;32.67;35.61;100475.81;4957015;29;20051;-72
2022/07/03 06:02:37;;;;;;;9.23;6.05;;;;;;;33.73;33.37;100477.91;4957278;29;20127;-72
2022/07/03 06:05:06;;;;;;;8.00;6.03;;;;;;;33.10;34.67;100474.81;4956363;28;20441;-72
2022/07/03 06:07:36;;;;;;;8.07;5.82;;;;;;;33.44;34.65;100474.13;4957286;29;20055;-71
2022/07/03 06:10:05;;;;;;;8.52;6.40;;;;;;;32.51;35.97;100476.41;4956734;29;20130;-70
2022/07/03 06:12:33;;;;;;;9.85;6.35;;;;;;;33.37;34.17;100481.66;4957092;29;20039;-70
2022/07/03 06:15:01;;;;;;;7.03;6.18;;;;;;;32.97;35.29;100475.84;4939489;29;20076;-71
2022/07/03 06:17:30;;;;;;;7.10;5.72;;;;;;;33.77;34.40;100478.25;4956866;29;20119;-71
2022/07/03 06:19:58;;;;;;;8.60;6.22;;;;;;;33.59;34.45;100479.22;4956623;29;20050;-71
2022/07/03 06:22:26;;;;;;;7.68;5.63;;;;;;;33.58;34.53;100481.13;4957228;29;20051;-71
2022/07/03 06:24:56;;;;;;;6.57;5.60;;;;;;;33.63;34.43;100487.88;4956648;29;20151;-69
2022/07/03 06:27:24;;;;;;;8.10;6.38;;;;;;;33.26;34.23;100483.28;4956368;29;20063;-69
2022/07/03 06:29:52;;;;;;;6.93;6.00;;;;;;;34.12;33.30;100486.59;4956591;29;20046;-70
2022/07/03 06:32:20;;;;;;;10.13;6.00;;;;;;;34.11;33.93;100490.47;4956954;29;20051;-69
2022/07/03 06:34:48;;;;;;;8.32;6.07;;;;;;;33.93;33.87;100483.13;4956603;29;20045;-69
2022/07/03 06:37:17;;;;;;;8.25;5.97;;;;;;;34.24;33.17;100486.59;4956401;29;20058;-72
2022/07/03 06:39:45;;;;;;;7.90;6.13;;;;;;;34.25;32.68;100489.13;4956648;29;20054;-72
2022/07/03 06:42:15;;;;;;;6.90;5.53;;;;;;;34.54;33.17;100492.84;4956363;29;20043;-72
2022/07/03 06:44:44;;;;;;;8.20;6.20;;;;;;;34.29;32.79;100487.56;4956455;29;20129;-71
2022/07/03 06:47:19;;;;;;;8.35;6.50;;;;;;;34.28;33.09;100483.13;4956715;29;20044;-71
2022/07/03 06:49:47;;;;;;;7.45;6.18;;;;;;;33.68;34.73;100483.28;4956371;29;20047;-71
2022/07/03 06:52:15;;;;;;;7.50;6.07;;;;;;;33.44;34.28;100479.66;4956311;29;20054;-71
2022/07/03 06:54:44;;;;;;;7.63;6.30;;;;;;;34.18;34.02;100479.28;4956603;29;20043;-70
2022/07/03 06:57:12;;;;;;;8.32;6.43;;;;;;;34.40;32.64;100475.66;4955067;29;20070;-75
2022/07/03 06:59:42;;;;;;;7.88;5.82;;;;;;;34.62;32.70;100475.00;4953019;29;20043;-71
2022/07/03 07:02:11;;;;;;;9.90;6.22;;;;;;;34.26;32.92;100476.97;4955535;29;20122;-70
2022/07/03 07:04:39;;;;;;;8.15;6.00;;;;;;;32.70;35.64;100467.88;4955544;29;20502;-73
2022/07/03 07:07:07;;;;;;;8.98;6.05;;;;;;;31.23;38.04;100455.69;4955475;29;20069;-70
2022/07/03 07:09:36;;;;;;;9.10;6.53;;;;;;;31.33;39.33;100460.72;4953999;29;20051;-71
2022/07/03 07:12:05;;;;;;;8.20;6.50;;;;;;;31.32;38.84;100459.88;4950763;29;20130;-70
2022/07/03 07:14:33;;;;;;;8.75;6.63;;;;;;;31.10;39.35;100461.28;4937611;29;20484;-74
2022/07/03 07:17:03;;;;;;;9.18;6.47;;;;;;;30.92;39.71;100463.94;4948976;28;20063;-69
2022/07/03 07:19:32;;;;;;;8.15;6.90;;;;;;;31.30;39.10;100456.50;4944615;29;20186;-68
2022/07/03 07:22:00;;;;;;;9.68;6.90;;;;;;;31.31;39.23;100452.69;4942068;29;20050;-70
2022/07/03 07:24:29;;;;;;;8.68;6.47;;;;;;;31.33;39.70;100450.53;4934361;29;20052;-72
2022/07/03 07:26:57;;;;;;;9.80;6.72;;;;;;;31.61;39.14;100450.09;4940111;29;20392;-71
2022/07/03 07:29:26;;;;;;;8.23;6.63;;;;;;;31.47;39.08;100448.53;4946315;29;20051;-69
2022/07/03 07:31:54;;;;;;;9.15;6.80;;;;;;;30.97;40.46;100450.31;4947495;29;20574;-69
2022/07/03 07:34:24;;;;;;;7.40;6.20;;;;;;;30.71;40.32;100445.81;4938867;29;20134;-73
2022/07/03 07:36:52;;;;;;;12.00;7.82;;;;;;;30.33;41.46;100449.31;4939397;29;20070;-70
2022/07/03 07:39:20;;;;;;;8.75;7.00;;;;;;;29.92;42.23;100452.34;4946916;29;20044;-72
2022/07/03 07:41:48;;;;;;;10.07;7.20;;;;;;;29.78;42.90;100456.16;4935301;29;20488;-71
2022/07/03 07:44:17;;;;;;;9.38;6.97;;;;;;;29.79;43.14;100457.84;4950190;29;20497;-70
2022/07/03 07:46:47;;;;;;;11.38;6.90;;;;;;;29.55;43.23;100460.19;4938611;29;20427;-72
2022/07/03 07:49:15;;;;;;;8.27;6.78;;;;;;;29.79;42.86;100463.34;4947375;29;20041;-70
2022/07/03 07:51:45;;;;;;;10.77;7.10;;;;;;;29.52;43.60;100468.84;4945503;29;20058;-71
2022/07/03 07:54:14;;;;;;;9.85;6.93;;;;;;;29.85;42.92;100468.00;4939876;29;20498;-69
2022/07/03 07:56:42;;;;;;;10.18;7.00;;;;;;;30.11;42.36;100468.00;4951111;29;20047;-73
2022/07/03 07:59:10;;;;;;;9.13;6.45;;;;;;;30.34;41.87;100472.19;4941117;29;20055;-70
2022/07/03 08:07:11;;;;;;;8.45;6.82;;;;;;;29.77;42.78;100476.47;4941249;29;20102;-70
2022/07/03 08:09:40;;;;;;;9.70;7.07;;;;;;;29.90;42.97;100470.94;4943947;29;20086;-71
2022/07/03 08:12:09;;;;;;;9.63;7.13;;;;;;;30.04;42.17;100477.28;4948645;29;20094;-69
2022/07/03 08:14:37;;;;;;;8.90;6.90;;;;;;;29.98;42.69;100473.47;4938377;29;20047;-72
2022/07/03 08:17:06;;;;;;;9.52;7.10;;;;;;;29.67;42.77;100471.41;4948688;29;20075;-71
2022/07/03 08:19:35;;;;;;;8.32;7.20;;;;;;;29.50;43.00;100467.38;4944278;29;20047;-70
2022/07/03 08:22:03;;;;;;;8.85;6.82;;;;;;;29.46;43.15;100469.66;4940847;29;20044;-70
2022/07/03 08:24:33;;;;;;;9.52;7.10;;;;;;;29.45;43.84;100462.50;4950543;29;20070;-71
2022/07/03 08:27:01;;;;;;;8.18;7.15;;;;;;;29.59;42.96;100475.19;4940411;29;20098;-71
2022/07/03 08:29:29;;;;;;;10.05;7.03;;;;;;;29.17;43.74;100472.81;4948943;29;20062;-72
2022/07/03 08:32:04;;;;;;;9.80;7.57;;;;;;;29.27;43.72;100470.50;4952054;29;20050;-72
2022/07/03 08:34:32;;;;;;;9.45;7.20;;;;;;;29.57;43.26;100465.47;4941782;29;20040;-71
2022/07/03 08:37:00;;;;;;;10.23;7.28;;;;;;;29.68;42.79;100466.75;4953032;29;20055;-73
2022/07/03 08:39:29;;;;;;;8.25;6.43;;;;;;;29.96;42.17;100464.59;4947081;29;20400;-72
2022/07/03 08:41:59;;;;;;;8.82;6.97;;;;;;;29.79;41.85;100461.44;4945534;29;20058;-71
2022/07/03 08:44:28;;;;;;;7.63;6.82;;;;;;;29.69;41.50;100465.69;4954304;29;20547;-71
2022/07/03 08:46:59;;;;;;;8.48;6.85;;;;;;;29.66;42.01;100468.88;4943195;29;20040;-70
2022/07/03 08:49:29;;;;;;;10.25;7.03;;;;;;;29.68;41.69;100472.25;4948870;29;20173;-72
2022/07/03 08:52:00;;;;;;;7.55;6.75;;;;;;;29.47;41.22;100462.28;4933427;29;20506;-71
2022/07/03 08:54:29;;;;;;;9.75;7.53;;;;;;;29.59;41.41;100469.69;4941712;29;20127;-71
2022/07/03 08:56:58;;;;;;;8.35;6.95;;;;;;;29.56;41.54;100467.38;4953376;29;20048;-71
2022/07/03 08:59:31;;;;;;;8.38;7.32;;;;;;;29.73;41.29;100461.47;4946150;29;20416;-71
2022/07/03 09:02:00;;;;;;;8.65;7.40;;;;;;;29.67;41.50;100462.31;4927395;29;20059;-72
2022/07/03 09:04:29;;;;;;;10.27;7.40;;;;;;;29.29;41.93;100458.22;4953711;29;20047;-73
2022/07/03 09:06:59;;;;;;;8.85;7.05;;;;;;;29.06;42.78;100453.13;4942850;29;20505;-71
2022/07/03 09:09:28;;;;;;;10.48;7.60;;;;;;;29.49;41.80;100454.69;4931539;29;20066;-73
2022/07/03 09:11:59;;;;;;;9.32;7.45;;;;;;;29.86;40.64;100447.69;4950323;29;20130;-73
2022/07/03 09:14:27;;;;;;;8.77;7.13;;;;;;;30.08;39.73;100451.91;4941082;29;20044;-71
2022/07/03 09:16:56;;;;;;;8.63;6.63;;;;;;;30.36;40.36;100439.78;4953015;29;20040;-71
2022/07/03 09:19:43;;;;;;;9.65;7.40;;;;;;;30.34;40.37;100439.16;4946030;29;20051;-69
2022/07/03 09:22:25;;;;;;;8.38;6.82;;;;;;;30.17;40.58;100439.63;4925534;29;20144;-70
2022/07/03 09:24:55;;;;;;;10.95;7.72;;;;;;;30.13;39.78;100440.28;4924730;29;20055;-74
2022/07/03 09:27:25;;;;;;;8.95;7.03;;;;;;;30.14;40.36;100433.72;4948755;29;20069;-69
2022/07/03 09:30:01;;;;;;;10.02;7.70;;;;;;;30.27;40.53;100432.81;4949855;29;20401;-70
2022/07/03 09:32:41;;;;;;;8.85;7.05;;;;;;;30.47;40.10;100433.59;4940929;29;20078;-72
2022/07/03 09:35:19;;;;;;;8.45;7.25;;;;;;;30.43;39.78;100432.34;4950579;29;20249;-72
2022/07/03 09:37:52;;;;;;;10.10;7.05;;;;;;;30.57;39.28;100431.22;4948842;29;20051;-71
2022/07/03 09:40:21;;;;;;;10.10;7.38;;;;;;;30.33;39.94;100431.97;4940248;28;20048;-72
2022/07/03 09:43:01;;;;;;;8.88;7.22;;;;;;;30.61;39.56;100423.38;4936834;29;20044;-71
2022/07/03 09:45:50;;;;;;;9.40;7.03;;;;;;;30.71;38.96;100415.53;4920105;29;20412;-76
2022/07/03 09:48:30;;;;;;;8.35;6.63;;;;;;;30.82;39.26;100414.00;4937306;29;20058;-76
2022/07/03 09:51:11;;;;;;;8.35;6.88;;;;;;;30.44;39.56;100412.88;4937212;29;20051;-75
2022/07/03 09:53:49;;;;;;;9.00;6.88;;;;;;;30.61;39.03;100407.72;4938171;29;20071;-74
2022/07/03 09:56:26;;;;;;;11.00;7.20;;;;;;;30.76;39.32;100405.53;4937910;29;20055;-75
2022/07/03 09:59:10;;;;;;;9.55;7.32;;;;;;;31.03;38.84;100405.38;4938096;29;20044;-75
2022/07/03 10:01:40;;;;;;;8.15;7.00;;;;;;;31.04;38.68;100396.88;4938427;29;20127;-75
2022/07/03 10:04:16;;;;;;;9.43;6.88;;;;;;;30.98;39.03;100399.69;4937921;29;20062;-75
2022/07/03 10:06:55;;;;;;;8.75;6.22;;;;;;;31.20;37.86;100395.53;4937966;29;20047;-75
2022/07/03 10:09:25;;;;;;;8.40;6.03;;;;;;;31.29;37.40;100385.09;4937890;29;20123;-75
2022/07/03 10:11:55;;;;;;;7.65;6.30;;;;;;;31.33;37.33;100389.06;4938001;29;20043;-75
2022/07/03 10:14:26;;;;;;;8.52;6.90;;;;;;;31.11;37.42;100391.34;4937601;29;20469;-75
2022/07/03 10:16:55;;;;;;;8.80;6.55;;;;;;;31.23;37.43;100389.56;4937806;29;20127;-75
2022/07/03 10:19:26;;;;;;;8.40;6.60;;;;;;;31.04;38.53;100388.63;4937413;29;20485;-75
2022/07/03 10:21:56;;;;;;;8.40;6.30;;;;;;;31.07;38.31;100384.56;4937899;29;20055;-75
2022/07/03 10:24:25;;;;;;;11.45;6.75;;;;;;;31.22;37.81;100379.63;4937652;29;20067;-75
2022/07/03 10:26:55;;;;;;;7.05;6.22;;;;;;;31.36;37.31;100372.06;4920871;29;20052;-75
2022/07/03 10:29:26;;;;;;;8.40;6.38;;;;;;;31.49;37.33;100371.13;4937399;29;20048;-75
2022/07/03 10:31:57;;;;;;;9.18;6.50;;;;;;;31.49;37.29;100371.13;4920741;29;20059;-73
2022/07/03 10:34:27;;;;;;;7.88;6.68;;;;;;;31.50;37.32;100376.41;4937809;29;20509;-72
2022/07/03 10:36:59;;;;;;;7.45;6.10;;;;;;;31.67;36.61;100365.66;4937554;29;20051;-71
2022/07/03 10:39:45;;;;;;;7.00;6.30;;;;;;;31.66;36.90;100365.91;4937277;29;20095;-72
2022/07/03 10:45:11;;;;;;;7.93;6.13;;;;;;;31.26;36.82;100367.06;4935381;29;20063;-72
2022/07/03 10:47:47;;;;;;;7.97;6.18;;;;;;;31.12;37.28;100357.22;4936904;29;20118;-69
2022/07/03 10:50:16;;;;;;;8.60;5.63;;;;;;;31.01;37.64;100352.44;4919424;29;20052;-70
2022/07/03 10:52:45;;;;;;;8.00;5.97;;;;;;;31.21;37.05;100346.78;4936347;29;20488;-69
2022/07/03 10:55:15;;;;;;;9.30;6.07;;;;;;;31.43;36.92;100347.22;4936438;29;20048;-71
2022/07/03 10:57:44;;;;;;;8.48;5.78;;;;;;;31.63;36.64;100345.94;4936502;29;20126;-71
2022/07/03 11:00:18;;;;;;;7.57;5.78;;;;;;;31.32;37.06;100344.13;4936397;29;20405;-72
2022/07/03 11:02:49;;;;;;;7.88;6.30;;;;;;;31.26;37.04;100339.53;4936317;29;20048;-72
2022/07/03 11:05:36;;;;;;;7.47;5.88;;;;;;;31.56;36.25;100341.59;4936718;29;20071;-71
2022/07/03 11:08:07;;;;;;;9.00;5.80;;;;;;;31.83;35.83;100331.97;4919269;29;20410;-72
2022/07/03 11:10:40;;;;;;;8.80;5.68;;;;;;;31.88;35.19;100340.44;4936635;29;20054;-72
2022/07/03 11:13:11;;;;;;;7.43;5.60;;;;;;;31.63;35.66;100339.59;4935711;29;20544;-73
2022/07/03 11:15:43;;;;;;;7.50;5.68;;;;;;;31.46;35.61;100328.34;4936452;29;20098;-71
2022/07/03 11:18:27;;;;;;;7.95;6.00;;;;;;;31.22;35.30;100332.78;4936270;29;20043;-71
2022/07/03 11:21:23;;;;;;;7.15;5.75;;;;;;;31.10;36.03;100334.56;4936234;29;20051;-71
2022/07/03 11:24:19;;;;;;;7.15;5.88;;;;;;;31.19;36.29;100324.94;4935850;29;20052;-71
2022/07/03 11:27:21;;;;;;;9.05;5.53;;;;;;;31.14;36.10;100322.00;4919327;29;20047;-70
2022/07/03 11:30:00;;;;;;;8.85;6.00;;;;;;;31.51;34.97;100317.47;4935943;29;20075;-70
2022/07/03 11:32:57;;;;;;;8.50;5.50;;;;;;;31.37;35.06;100317.84;4935897;29;20050;-73
2022/07/03 11:35:48;;;;;;;7.75;5.75;;;;;;;31.64;34.43;100316.47;4936098;29;20079;-73
2022/07/03 11:38:20;;;;;;;7.28;5.40;;;;;;;31.92;33.63;100309.63;4918666;29;20067;-71
2022/07/03 11:40:51;;;;;;;7.88;5.20;;;;;;;32.00;33.50;100301.88;4935737;29;20118;-71
2022/07/03 11:43:20;;;;;;;8.57;5.25;;;;;;;32.12;33.44;100304.69;4918702;29;20094;-69
2022/07/03 11:45:49;;;;;;;6.68;5.07;;;;;;;31.94;33.07;100296.44;4935420;29;20047;-71
2022/07/03 11:48:20;;;;;;;6.63;5.13;;;;;;;32.12;33.20;100291.72;4935635;29;20413;-75
2022/07/03 11:50:50;;;;;;;6.27;5.10;;;;;;;32.21;32.79;100300.53;4935557;29;20044;-72